createdAt,value
2018-09-07T00:01:54.469Z,18.70
2018-09-07T00:04:22.091Z,18.80
2018-09-07T00:06:49.758Z,18.90
2018-09-07T00:09:17.421Z,18.80
2018-09-07T00:11:45.153Z,18.90
2018-09-07T00:14:12.757Z,18.80
2018-09-07T00:16:40.337Z,18.80
2018-09-07T00:19:07.942Z,18.80
2018-09-07T00:21:35.561Z,18.80
2018-09-07T00:24:03.221Z,18.90
2018-09-07T00:26:30.911Z,18.90
2018-09-07T00:28:58.588Z,18.80
2018-09-07T00:31:26.238Z,18.80
2018-09-07T00:33:53.922Z,18.90
2018-09-07T00:36:21.529Z,18.90
2018-09-07T00:38:49.213Z,18.90
2018-09-07T00:41:16.777Z,18.90
2018-09-07T00:43:44.414Z,18.90
2018-09-07T00:46:12.006Z,18.90
2018-09-07T00:48:39.621Z,18.80
2018-09-07T00:51:07.297Z,18.90
2018-09-07T00:53:34.999Z,18.90
2018-09-07T00:56:02.739Z,18.90
2018-09-07T00:58:30.421Z,18.90
2018-09-07T01:00:58.133Z,18.80
2018-09-07T01:03:25.717Z,18.70
2018-09-07T01:05:53.373Z,18.70
2018-09-07T01:08:21.049Z,18.70
2018-09-07T01:10:48.787Z,18.70
2018-09-07T01:13:16.417Z,18.70
2018-09-07T01:15:44.108Z,18.60
2018-09-07T01:18:12.093Z,18.50
2018-09-07T01:20:39.808Z,18.50
2018-09-07T01:23:07.519Z,18.60
2018-09-07T01:25:35.204Z,18.60
2018-09-07T01:28:02.883Z,18.60
2018-09-07T01:30:30.627Z,18.60
2018-09-07T01:32:58.691Z,18.50
2018-09-07T01:35:27.163Z,18.50
2018-09-07T01:38:00.556Z,18.50
2018-09-07T01:40:28.277Z,18.50
2018-09-07T01:42:55.993Z,18.50
2018-09-07T01:45:23.673Z,18.50
2018-09-07T01:47:51.415Z,18.50
2018-09-07T01:50:19.545Z,18.60
2018-09-07T01:52:47.236Z,18.60
2018-09-07T01:55:15.441Z,18.50
2018-09-07T01:57:43.120Z,18.50
2018-09-07T02:00:10.999Z,18.60
2018-09-07T02:02:43.272Z,18.50
2018-09-07T02:05:11.250Z,18.40
2018-09-07T02:07:38.886Z,18.40
2018-09-07T02:10:06.573Z,18.50
2018-09-07T02:12:34.348Z,18.40
2018-09-07T02:15:03.409Z,18.30
2018-09-07T02:17:32.555Z,18.30
2018-09-07T02:20:00.578Z,18.30
2018-09-07T02:22:28.528Z,18.40
2018-09-07T02:24:56.161Z,18.40
2018-09-07T02:27:23.766Z,18.30
2018-09-07T02:29:51.540Z,18.20
2018-09-07T02:32:19.178Z,18.30
2018-09-07T02:34:47.305Z,18.30
2018-09-07T02:37:14.989Z,18.30
2018-09-07T02:39:42.692Z,18.20
2018-09-07T02:42:10.519Z,18.20
2018-09-07T02:44:38.161Z,18.10
2018-09-07T02:47:05.831Z,18.10
2018-09-07T02:49:33.475Z,18.20
2018-09-07T02:52:01.182Z,18.30
2018-09-07T02:54:28.821Z,18.30
2018-09-07T02:56:56.460Z,18.30
2018-09-07T02:59:24.099Z,18.30
2018-09-07T03:01:51.779Z,18.40
2018-09-07T03:04:19.513Z,18.20
2018-09-07T03:06:47.137Z,18.20
2018-09-07T03:09:14.804Z,18.10
2018-09-07T03:11:42.425Z,18.10
2018-09-07T03:14:10.201Z,18.10
2018-09-07T03:16:37.904Z,18.10
2018-09-07T03:19:05.595Z,18.10
2018-09-07T03:21:33.297Z,18.20
2018-09-07T03:24:01.052Z,18.20
2018-09-07T03:26:28.714Z,18.30
2018-09-07T03:28:56.356Z,18.30
2018-09-07T03:31:24.044Z,18.30
2018-09-07T03:33:51.936Z,18.20
2018-09-07T03:36:19.721Z,18.10
2018-09-07T03:38:47.368Z,18.00
2018-09-07T03:41:14.998Z,18.10
2018-09-07T03:43:42.546Z,18.00
2018-09-07T03:46:10.554Z,18.00
2018-09-07T03:48:38.510Z,18.00
2018-09-07T03:51:06.128Z,17.90
2018-09-07T03:53:33.748Z,17.90
2018-09-07T03:56:01.407Z,17.80
2018-09-07T03:58:28.997Z,17.70
2018-09-07T04:00:56.625Z,17.70
2018-09-07T04:03:24.263Z,17.70
2018-09-07T04:05:51.981Z,17.70
2018-09-07T04:08:19.583Z,17.50
2018-09-07T04:10:48.179Z,17.40
2018-09-07T04:13:15.865Z,17.40
2018-09-07T04:15:43.469Z,17.30
2018-09-07T04:18:11.097Z,17.40
2018-09-07T04:20:38.946Z,17.40
2018-09-07T04:23:06.521Z,17.30
2018-09-07T04:25:34.187Z,17.40
2018-09-07T04:28:01.842Z,17.30
2018-09-07T04:30:29.444Z,17.30
2018-09-07T04:32:57.046Z,17.40
2018-09-07T04:35:24.857Z,17.40
2018-09-07T04:37:52.482Z,17.40
2018-09-07T04:40:20.068Z,17.60
2018-09-07T04:42:47.863Z,17.60
2018-09-07T04:45:15.586Z,17.70
2018-09-07T04:47:43.251Z,17.80
2018-09-07T04:50:11.228Z,17.70
2018-09-07T04:52:38.919Z,17.80
2018-09-07T04:55:06.790Z,17.80
2018-09-07T04:57:34.631Z,17.80
2018-09-07T05:00:02.758Z,17.80
2018-09-07T05:02:30.418Z,17.80
2018-09-07T05:04:58.146Z,17.80
2018-09-07T05:07:25.822Z,17.90
2018-09-07T05:09:53.523Z,17.90
2018-09-07T05:12:21.111Z,18.10
2018-09-07T05:14:48.759Z,18.10
2018-09-07T05:17:16.437Z,18.20
2018-09-07T05:19:44.145Z,18.30
2018-09-07T05:22:11.882Z,18.50
2018-09-07T05:24:39.497Z,18.50
2018-09-07T05:27:07.194Z,18.70
2018-09-07T05:29:35.039Z,18.80
2018-09-07T05:32:02.713Z,18.90
2018-09-07T05:34:30.397Z,19.00
2018-09-07T05:36:58.035Z,18.90
2018-09-07T05:39:25.709Z,18.90
2018-09-07T05:41:53.486Z,19.00
2018-09-07T05:44:21.123Z,19.00
2018-09-07T05:46:48.729Z,18.90
2018-09-07T05:49:16.354Z,19.00
2018-09-07T05:51:44.032Z,18.90
2018-09-07T05:54:11.660Z,19.00
2018-09-07T05:56:39.345Z,19.10
2018-09-07T05:59:06.998Z,19.10
2018-09-07T06:01:34.636Z,19.10
2018-09-07T06:04:02.308Z,19.00
2018-09-07T06:06:29.914Z,19.10
2018-09-07T06:08:57.567Z,19.20
2018-09-07T06:11:25.208Z,19.20
2018-09-07T06:13:52.784Z,19.00
2018-09-07T06:16:20.528Z,19.00
2018-09-07T06:18:48.289Z,19.10
2018-09-07T06:21:16.005Z,19.20
2018-09-07T06:23:43.644Z,19.20
2018-09-07T06:26:11.374Z,19.10
2018-09-07T06:28:38.957Z,19.10
2018-09-07T06:31:06.667Z,19.10
2018-09-07T06:33:34.339Z,18.80
2018-09-07T06:36:01.997Z,18.90
2018-09-07T06:38:30.385Z,19.10
2018-09-07T06:40:58.015Z,19.10
2018-09-07T06:43:25.797Z,19.10
2018-09-07T06:45:53.527Z,19.00
2018-09-07T06:48:21.198Z,19.00
2018-09-07T06:50:48.857Z,18.80
2018-09-07T06:53:16.651Z,18.80
2018-09-07T06:55:44.349Z,18.80
2018-09-07T06:58:11.962Z,18.60
2018-09-07T07:00:40.231Z,18.70
2018-09-07T07:03:08.345Z,18.60
2018-09-07T07:05:36.362Z,18.70
2018-09-07T07:08:04.108Z,18.50
2018-09-07T07:10:31.847Z,18.50
2018-09-07T07:12:59.479Z,18.50
2018-09-07T07:15:27.153Z,18.70
2018-09-07T07:17:54.831Z,18.90
2018-09-07T07:20:22.539Z,19.10
2018-09-07T07:22:50.219Z,18.90
2018-09-07T07:25:17.837Z,18.70
2018-09-07T07:27:45.531Z,18.80
2018-09-07T07:30:13.506Z,18.60
2018-09-07T07:32:41.109Z,18.60
2018-09-07T07:35:08.747Z,18.70
2018-09-07T07:37:36.432Z,18.70
2018-09-07T07:40:04.209Z,18.80
2018-09-07T07:42:31.860Z,18.70
2018-09-07T07:44:59.472Z,18.90
2018-09-07T07:47:28.244Z,19.10
2018-09-07T07:49:55.894Z,19.20
2018-09-07T07:52:23.528Z,19.30
2018-09-07T07:54:51.140Z,19.50
2018-09-07T07:57:18.873Z,19.60
2018-09-07T07:59:46.610Z,19.70
2018-09-07T08:02:14.209Z,19.50
2018-09-07T08:04:41.853Z,19.50
2018-09-07T08:07:09.772Z,19.40
2018-09-07T08:09:37.421Z,19.20
2018-09-07T08:12:05.201Z,19.40
2018-09-07T08:14:33.011Z,19.50
2018-09-07T08:17:00.625Z,19.50
2018-09-07T08:19:28.261Z,19.40
2018-09-07T08:21:55.957Z,19.60
2018-09-07T08:24:23.655Z,19.50
2018-09-07T08:26:51.334Z,19.50
2018-09-07T08:29:18.994Z,19.80
2018-09-07T08:31:46.681Z,19.80
2018-09-07T08:34:14.379Z,19.80
2018-09-07T08:36:41.989Z,20.10
2018-09-07T08:39:09.691Z,20.30
2018-09-07T08:41:37.515Z,20.30
2018-09-07T08:44:12.044Z,20.40
2018-09-07T08:46:39.660Z,20.30
2018-09-07T08:49:07.240Z,20.30
2018-09-07T08:51:34.968Z,20.60
2018-09-07T08:54:02.624Z,21.10
2018-09-07T08:56:30.257Z,20.90
2018-09-07T08:58:57.898Z,21.20
2018-09-07T09:01:25.596Z,21.40
2018-09-07T09:03:53.361Z,21.30
2018-09-07T09:06:21.026Z,21.60
2018-09-07T09:08:48.689Z,22.10
2018-09-07T09:11:16.321Z,22.20
2018-09-07T09:13:43.933Z,22.10
2018-09-07T09:16:11.630Z,22.50
2018-09-07T09:18:39.265Z,22.20
2018-09-07T09:21:06.885Z,21.90
2018-09-07T09:23:34.629Z,22.60
2018-09-07T09:26:02.104Z,22.70
2018-09-07T09:28:29.759Z,22.30
2018-09-07T09:30:57.371Z,22.30
2018-09-07T09:33:25.017Z,22.20
2018-09-07T09:35:52.667Z,22.20
2018-09-07T09:38:20.323Z,22.10
2018-09-07T09:40:48.111Z,21.70
2018-09-07T09:43:15.766Z,21.10
2018-09-07T09:45:43.457Z,21.00
2018-09-07T09:48:11.085Z,20.40
2018-09-07T09:50:38.685Z,20.30
2018-09-07T09:53:06.395Z,20.50
2018-09-07T09:55:33.968Z,20.10
2018-09-07T09:58:01.604Z,20.10
2018-09-07T10:00:35.129Z,19.90
2018-09-07T10:03:08.920Z,19.80
2018-09-07T10:05:36.692Z,19.90
2018-09-07T10:08:04.422Z,19.90
2018-09-07T10:10:32.107Z,19.80
2018-09-07T10:12:59.739Z,19.80
2018-09-07T10:15:27.360Z,19.80
2018-09-07T10:17:54.981Z,20.00
2018-09-07T10:20:22.725Z,20.10
2018-09-07T10:22:50.351Z,20.20
2018-09-07T10:25:18.031Z,20.00
2018-09-07T10:27:45.645Z,20.10
2018-09-07T10:30:13.339Z,20.30
2018-09-07T10:32:41.002Z,19.90
2018-09-07T10:35:08.636Z,20.00
2018-09-07T10:37:36.430Z,20.20
2018-09-07T10:40:04.484Z,20.50
2018-09-07T10:42:32.100Z,21.10
2018-09-07T10:44:59.722Z,21.80
2018-09-07T10:47:27.343Z,21.10
2018-09-07T10:49:54.931Z,21.00
2018-09-07T10:52:22.568Z,21.00
2018-09-07T10:54:50.308Z,21.20
2018-09-07T10:57:17.920Z,21.10
2018-09-07T10:59:45.538Z,21.00
2018-09-07T11:02:13.142Z,20.80
2018-09-07T11:04:40.846Z,20.70
2018-09-07T11:07:08.490Z,20.60
2018-09-07T11:09:36.104Z,20.40
2018-09-07T11:12:03.766Z,20.00
2018-09-07T11:14:31.435Z,19.60
2018-09-07T11:16:59.108Z,19.20
2018-09-07T11:19:26.714Z,19.30
2018-09-07T11:21:54.389Z,19.20
2018-09-07T11:24:21.996Z,19.20
2018-09-07T11:26:49.602Z,19.40
2018-09-07T11:29:17.229Z,19.70
2018-09-07T11:31:44.841Z,20.00
2018-09-07T11:34:12.439Z,20.60
2018-09-07T11:36:40.353Z,20.60
2018-09-07T11:39:08.932Z,20.50
2018-09-07T11:41:36.581Z,20.50
2018-09-07T11:44:04.585Z,20.40
2018-09-07T11:46:32.286Z,20.20
2018-09-07T11:48:59.874Z,20.20
2018-09-07T11:51:27.543Z,20.50
2018-09-07T11:53:55.143Z,20.60
2018-09-07T11:56:22.781Z,20.70
2018-09-07T11:58:50.362Z,20.60
2018-09-07T12:01:24.883Z,20.60
2018-09-07T12:03:52.545Z,20.60
2018-09-07T12:06:20.225Z,21.10
2018-09-07T12:08:47.869Z,21.80
2018-09-07T12:11:15.509Z,22.90
2018-09-07T12:13:43.192Z,24.00
2018-09-07T12:16:10.845Z,23.70
2018-09-07T12:18:38.484Z,23.50
2018-09-07T12:21:06.253Z,24.50
2018-09-07T12:23:33.912Z,24.70
2018-09-07T12:26:01.548Z,25.20
2018-09-07T12:28:29.250Z,24.70
2018-09-07T12:30:56.960Z,24.40
2018-09-07T12:33:51.320Z,24.40
2018-09-07T12:36:18.951Z,23.70
2018-09-07T12:38:46.612Z,23.80
2018-09-07T12:41:15.892Z,23.40
2018-09-07T12:43:43.758Z,23.50
2018-09-07T12:46:11.431Z,23.60
2018-09-07T12:48:39.195Z,23.50
2018-09-07T12:51:07.991Z,23.80
2018-09-07T12:53:36.688Z,24.60
2018-09-07T12:56:04.512Z,25.30
2018-09-07T12:58:32.206Z,25.30
2018-09-07T13:00:59.902Z,25.60
2018-09-07T13:03:27.556Z,25.20
2018-09-07T13:05:56.198Z,25.60
2018-09-07T13:08:23.959Z,26.30
2018-09-07T13:10:51.543Z,24.80
2018-09-07T13:13:19.238Z,24.20
2018-09-07T13:15:46.854Z,23.80
2018-09-07T13:18:14.490Z,24.00
2018-09-07T13:20:42.156Z,24.40
2018-09-07T13:23:09.782Z,25.10
2018-09-07T13:25:37.401Z,26.20
2018-09-07T13:28:05.037Z,27.40
2018-09-07T13:30:32.731Z,28.80
2018-09-07T13:33:00.375Z,29.50
2018-09-07T13:35:28.146Z,29.20
2018-09-07T13:37:55.783Z,30.00
2018-09-07T13:40:23.413Z,30.00
2018-09-07T13:42:51.101Z,29.30
2018-09-07T13:45:18.725Z,27.90
2018-09-07T13:47:46.303Z,27.30
2018-09-07T13:50:13.905Z,27.20
2018-09-07T13:52:41.494Z,26.50
2018-09-07T13:55:09.099Z,26.60
2018-09-07T13:57:36.822Z,27.70
2018-09-07T14:00:04.444Z,28.20
2018-09-07T14:02:32.107Z,29.70
2018-09-07T14:04:59.938Z,28.70
2018-09-07T14:07:27.712Z,29.60
2018-09-07T14:09:55.680Z,30.70
2018-09-07T14:12:23.347Z,30.30
2018-09-07T14:14:50.913Z,30.70
2018-09-07T14:17:18.548Z,30.40
2018-09-07T14:19:46.283Z,31.40
2018-09-07T14:22:13.905Z,32.20
2018-09-07T14:24:41.485Z,31.90
2018-09-07T14:27:09.066Z,31.90
2018-09-07T14:29:36.723Z,30.50
2018-09-07T14:32:04.372Z,28.00
2018-09-07T14:34:31.965Z,27.50
2018-09-07T14:36:59.919Z,26.70
2018-09-07T14:39:27.550Z,25.70
2018-09-07T14:41:55.142Z,26.80
2018-09-07T14:44:22.754Z,29.00
2018-09-07T14:46:50.378Z,31.80
2018-09-07T14:49:18.055Z,33.80
2018-09-07T14:51:45.716Z,34.70
2018-09-07T14:54:13.376Z,33.40
2018-09-07T14:56:40.996Z,31.90
2018-09-07T14:59:08.726Z,31.70
2018-09-07T15:01:37.236Z,31.80
2018-09-07T15:04:04.914Z,31.90
2018-09-07T15:06:32.568Z,31.00
2018-09-07T15:09:00.382Z,30.20
2018-09-07T15:11:28.030Z,29.50
2018-09-07T15:13:55.645Z,29.70
2018-09-07T15:16:23.321Z,30.00
2018-09-07T15:18:51.005Z,29.80
2018-09-07T15:21:18.658Z,30.40
2018-09-07T15:23:46.335Z,30.20
2018-09-07T15:26:14.117Z,30.90
2018-09-07T15:28:42.217Z,31.80
2018-09-07T15:31:09.911Z,31.80
2018-09-07T15:33:37.607Z,31.80
2018-09-07T15:36:05.263Z,32.40
2018-09-07T15:38:32.903Z,32.30
2018-09-07T15:41:00.460Z,30.70
2018-09-07T15:43:28.330Z,29.10
2018-09-07T15:45:56.058Z,28.10
2018-09-07T15:48:23.906Z,26.90
2018-09-07T15:50:51.516Z,26.50
2018-09-07T15:53:19.154Z,27.10
2018-09-07T15:55:46.842Z,28.60
2018-09-07T15:58:14.470Z,29.90
2018-09-07T16:00:42.166Z,29.50
2018-09-07T16:03:09.787Z,30.40
2018-09-07T16:05:37.412Z,30.90
2018-09-07T16:08:05.088Z,32.10
2018-09-07T16:10:32.814Z,32.00
2018-09-07T16:13:00.488Z,30.80
2018-09-07T16:15:28.230Z,31.50
2018-09-07T16:17:55.993Z,30.90
2018-09-07T16:20:23.726Z,31.50
2018-09-07T16:22:51.390Z,32.00
2018-09-07T16:25:19.049Z,31.20
2018-09-07T16:27:46.719Z,30.20
2018-09-07T16:30:14.479Z,29.50
2018-09-07T16:32:42.149Z,28.80
2018-09-07T16:35:09.987Z,28.00
2018-09-07T16:37:37.933Z,27.20
2018-09-07T16:40:06.081Z,26.50
2018-09-07T16:42:33.862Z,25.80
2018-09-07T16:45:01.697Z,25.60
2018-09-07T16:47:29.331Z,25.10
2018-09-07T16:49:56.986Z,25.10
2018-09-07T16:52:24.615Z,24.70
2018-09-07T16:54:58.960Z,24.40
2018-09-07T16:57:26.590Z,24.10
2018-09-07T16:59:54.298Z,23.90
2018-09-07T17:02:21.974Z,23.70
2018-09-07T17:04:50.132Z,23.60
2018-09-07T17:07:17.833Z,23.40
2018-09-07T17:09:45.622Z,23.20
2018-09-07T17:12:13.564Z,22.90
2018-09-07T17:14:41.252Z,22.40
2018-09-07T17:17:09.189Z,22.10
2018-09-07T17:19:36.865Z,22.00
2018-09-07T17:22:04.517Z,21.90
2018-09-07T17:24:32.164Z,21.70
2018-09-07T17:26:59.983Z,21.60
2018-09-07T17:29:27.719Z,21.60
2018-09-07T17:31:56.117Z,21.50
2018-09-07T17:34:23.855Z,21.20
2018-09-07T17:36:51.578Z,21.20
2018-09-07T17:39:19.221Z,21.10
2018-09-07T17:41:46.984Z,21.10
2018-09-07T17:44:14.773Z,21.20
2018-09-07T17:46:49.267Z,21.10
2018-09-07T17:49:16.974Z,21.10
2018-09-07T17:51:44.849Z,21.00
2018-09-07T17:54:12.535Z,20.90
2018-09-07T17:56:40.308Z,20.70
2018-09-07T17:59:07.961Z,20.60
2018-09-07T18:01:35.648Z,20.40
2018-09-07T18:04:03.347Z,20.30
2018-09-07T18:06:31.115Z,20.10
2018-09-07T18:08:58.825Z,20.00
2018-09-07T18:11:26.623Z,19.90
2018-09-07T18:13:54.328Z,19.90
2018-09-07T18:16:22.366Z,19.80
2018-09-07T18:18:50.057Z,19.80
2018-09-07T18:21:17.824Z,19.80
2018-09-07T18:23:45.593Z,19.70
2018-09-07T18:26:13.315Z,19.70
2018-09-07T18:28:41.407Z,19.70
2018-09-07T18:31:10.041Z,19.70
2018-09-07T18:33:37.867Z,19.70
2018-09-07T18:36:06.357Z,19.80
2018-09-07T18:38:33.725Z,19.80
2018-09-07T18:41:01.429Z,19.80
2018-09-07T18:43:29.561Z,19.80
2018-09-07T18:45:58.019Z,19.80
2018-09-07T18:48:25.785Z,19.70
2018-09-07T18:50:53.465Z,19.70
2018-09-07T18:53:21.264Z,19.60
2018-09-07T18:55:48.985Z,19.50
2018-09-07T18:58:16.599Z,19.50
2018-09-07T19:00:44.359Z,19.70
2018-09-07T19:03:12.057Z,19.80
2018-09-07T19:05:39.879Z,19.70
2018-09-07T19:08:07.620Z,19.70
2018-09-07T19:10:35.323Z,19.70
2018-09-07T19:13:03.138Z,19.40
2018-09-07T19:15:30.871Z,19.30
2018-09-07T19:17:58.805Z,19.20
2018-09-07T19:20:26.860Z,19.20
2018-09-07T19:22:54.690Z,19.20
2018-09-07T19:25:22.334Z,19.10
2018-09-07T19:27:50.083Z,19.10
2018-09-07T19:30:17.765Z,19.10
2018-09-07T19:32:45.410Z,18.90
2018-09-07T19:36:16.642Z,18.90
2018-09-07T19:38:44.284Z,18.70
2018-09-07T19:41:11.967Z,18.60
2018-09-07T19:43:39.701Z,18.20
2018-09-07T19:46:07.634Z,18.30
2018-09-07T19:48:35.451Z,18.30
2018-09-07T19:51:03.163Z,18.20
2018-09-07T19:53:30.891Z,18.10
2018-09-07T19:55:58.647Z,18.20
2018-09-07T19:58:26.383Z,18.20
2018-09-07T20:00:54.144Z,18.10
2018-09-07T20:03:21.799Z,18.10
2018-09-07T20:05:49.705Z,18.20
2018-09-07T20:08:17.711Z,18.30
2018-09-07T20:10:46.484Z,18.10
2018-09-07T20:13:14.147Z,18.00
2018-09-07T20:15:41.836Z,17.80
2018-09-07T20:18:09.579Z,17.70
2018-09-07T20:20:37.264Z,17.50
2018-09-07T20:23:04.930Z,17.40
2018-09-07T20:25:32.586Z,17.60
2018-09-07T20:28:00.233Z,17.70
2018-09-07T20:30:27.896Z,17.70
2018-09-07T20:32:55.525Z,17.70
2018-09-07T20:35:23.324Z,17.70
2018-09-07T20:37:50.998Z,17.70
2018-09-07T20:40:18.792Z,17.60
2018-09-07T20:42:46.518Z,17.60
2018-09-07T20:45:14.194Z,17.40
2018-09-07T20:47:42.032Z,17.30
2018-09-07T20:50:09.692Z,17.40
2018-09-07T20:52:37.388Z,17.50
2018-09-07T20:55:05.340Z,17.70
2018-09-07T20:57:33.265Z,17.70
2018-09-07T21:00:00.958Z,17.80
2018-09-07T21:02:28.718Z,17.80
2018-09-07T21:04:56.565Z,17.80
2018-09-07T21:07:24.372Z,17.80
2018-09-07T21:09:52.079Z,17.80
2018-09-07T21:12:19.777Z,18.00
2018-09-07T21:14:47.587Z,18.00
2018-09-07T21:17:15.268Z,18.00
2018-09-07T21:19:43.175Z,18.00
2018-09-07T21:22:10.858Z,18.00
2018-09-07T21:24:38.529Z,17.90
2018-09-07T21:27:06.189Z,18.00
2018-09-07T21:29:33.870Z,18.00
2018-09-07T21:32:01.515Z,18.00
2018-09-07T21:34:29.129Z,18.00
2018-09-07T21:36:56.772Z,18.00
2018-09-07T21:39:24.477Z,17.80
2018-09-07T21:41:52.110Z,17.70
2018-09-07T21:44:19.808Z,17.80
2018-09-07T21:46:47.458Z,17.90
2018-09-07T21:49:15.063Z,17.90
2018-09-07T21:51:42.715Z,17.80
2018-09-07T21:54:10.450Z,17.80
2018-09-07T21:56:38.130Z,17.60
2018-09-07T21:59:05.901Z,17.40
2018-09-07T22:01:33.582Z,17.30
2018-09-07T22:04:01.316Z,17.30
2018-09-07T22:06:28.965Z,17.20
2018-09-07T22:08:56.693Z,17.10
2018-09-07T22:11:24.398Z,17.10
2018-09-07T22:13:52.179Z,17.10
2018-09-07T22:16:19.851Z,17.00
2018-09-07T22:18:47.505Z,16.90
2018-09-07T22:21:15.188Z,16.90
2018-09-07T22:23:42.871Z,16.80
2018-09-07T22:26:10.532Z,16.70
2018-09-07T22:28:38.221Z,16.60
2018-09-07T22:31:05.952Z,16.60
2018-09-07T22:33:33.561Z,16.50
2018-09-07T22:36:01.203Z,16.50
2018-09-07T22:38:28.840Z,16.50
2018-09-07T22:40:56.537Z,16.40
2018-09-07T22:43:24.135Z,16.40
2018-09-07T22:45:51.752Z,16.40
2018-09-07T22:48:19.369Z,16.40
2018-09-07T22:50:47.016Z,16.40
2018-09-07T22:53:14.697Z,16.30
2018-09-07T22:55:42.443Z,16.40
2018-09-07T22:58:10.099Z,16.50
2018-09-07T23:00:37.745Z,16.40
2018-09-07T23:03:05.426Z,16.30
2018-09-07T23:05:33.030Z,16.40
2018-09-07T23:08:00.686Z,16.40
2018-09-07T23:10:28.369Z,16.40
2018-09-07T23:12:56.028Z,16.30
2018-09-07T23:15:23.690Z,16.30
2018-09-07T23:17:51.301Z,16.30
2018-09-07T23:20:19.008Z,16.20
2018-09-07T23:22:46.798Z,16.20
2018-09-07T23:25:14.444Z,16.20
2018-09-07T23:27:42.000Z,16.30
2018-09-07T23:30:10.528Z,16.30
2018-09-07T23:32:38.351Z,16.30
2018-09-07T23:35:06.050Z,16.30
2018-09-07T23:37:33.754Z,16.20
2018-09-07T23:40:01.504Z,16.20
2018-09-07T23:42:29.273Z,16.10
2018-09-07T23:44:56.967Z,16.20
2018-09-07T23:47:24.851Z,16.10
2018-09-07T23:49:52.559Z,16.10
2018-09-07T23:52:20.219Z,16.10
2018-09-07T23:54:47.947Z,16.00
2018-09-07T23:57:15.643Z,16.00
2018-09-07T23:59:43.323Z,16.00
